createdAt,value
2018-01-21T00:00:23.667Z,2.80
2018-01-21T00:02:51.225Z,2.70
2018-01-21T00:05:18.749Z,2.70
2018-01-21T00:07:47.115Z,2.70
2018-01-21T00:10:14.620Z,2.70
2018-01-21T00:12:42.932Z,2.70
2018-01-21T00:15:10.490Z,2.70
2018-01-21T00:17:38.195Z,2.70
2018-01-21T00:20:05.744Z,2.70
2018-01-21T00:22:41.103Z,2.70
2018-01-21T00:25:08.667Z,2.70
2018-01-21T00:27:36.197Z,2.70
2018-01-21T00:30:03.781Z,2.70
2018-01-21T00:32:32.136Z,2.70
2018-01-21T00:34:59.689Z,2.70
2018-01-21T00:37:27.205Z,2.70
2018-01-21T00:39:54.760Z,2.80
2018-01-21T00:42:22.268Z,2.80
2018-01-21T00:44:49.866Z,2.80
2018-01-21T00:47:17.431Z,2.80
2018-01-21T00:49:45.703Z,2.80
2018-01-21T00:52:14.016Z,2.80
2018-01-21T00:54:41.536Z,2.80
2018-01-21T00:57:09.083Z,2.80
2018-01-21T00:59:36.623Z,2.80
2018-01-21T01:02:05.007Z,2.80
2018-01-21T01:04:33.284Z,2.80
2018-01-21T01:07:01.612Z,2.80
2018-01-21T01:09:29.124Z,2.80
2018-01-21T01:11:56.681Z,2.80
2018-01-21T01:14:24.203Z,2.80
2018-01-21T01:16:51.760Z,2.80
2018-01-21T01:19:20.084Z,2.80
2018-01-21T01:21:47.641Z,2.80
2018-01-21T01:24:15.156Z,2.80
2018-01-21T01:26:42.707Z,2.80
2018-01-21T01:29:10.227Z,2.80
2018-01-21T01:31:37.801Z,2.80
2018-01-21T01:34:05.363Z,2.80
2018-01-21T01:36:32.884Z,2.90
2018-01-21T01:39:00.447Z,2.90
2018-01-21T01:41:28.724Z,2.90
2018-01-21T01:43:57.047Z,2.90
2018-01-21T01:46:24.563Z,2.90
2018-01-21T01:48:55.810Z,2.90
2018-01-21T01:51:23.340Z,3.00
2018-01-21T01:53:50.891Z,3.00
2018-01-21T01:56:19.175Z,3.00
2018-01-21T01:58:46.750Z,3.00
2018-01-21T02:01:14.283Z,2.90
2018-01-21T02:03:41.816Z,2.90
2018-01-21T02:06:09.379Z,2.80
2018-01-21T02:08:37.669Z,2.80
2018-01-21T02:11:06.001Z,2.80
2018-01-21T02:13:33.593Z,2.80
2018-01-21T02:16:01.168Z,2.80
2018-01-21T02:18:28.735Z,2.70
2018-01-21T02:20:56.263Z,2.70
2018-01-21T02:23:23.774Z,2.70
2018-01-21T02:25:51.322Z,2.70
2018-01-21T02:28:18.839Z,2.70
2018-01-21T02:30:46.399Z,2.70
2018-01-21T02:33:13.910Z,2.60
2018-01-21T02:35:42.230Z,2.50
2018-01-21T02:38:09.795Z,2.50
2018-01-21T02:40:37.325Z,2.30
2018-01-21T02:43:05.667Z,2.20
2018-01-21T02:45:33.199Z,2.10
2018-01-21T02:48:01.533Z,2.10
2018-01-21T02:50:29.044Z,2.00
2018-01-21T02:52:57.464Z,2.00
2018-01-21T02:55:24.981Z,2.00
2018-01-21T02:57:52.531Z,2.00
2018-01-21T03:00:20.092Z,2.00
2018-01-21T03:02:47.647Z,2.00
2018-01-21T03:05:15.163Z,2.10
2018-01-21T03:07:42.719Z,2.10
2018-01-21T03:10:10.238Z,2.20
2018-01-21T03:12:37.748Z,2.20
2018-01-21T03:15:05.301Z,2.30
2018-01-21T03:17:33.582Z,2.30
2018-01-21T03:20:01.898Z,2.40
2018-01-21T03:22:29.411Z,2.40
2018-01-21T03:24:56.959Z,2.40
2018-01-21T03:27:24.468Z,2.40
2018-01-21T03:29:52.036Z,2.50
2018-01-21T03:32:19.545Z,2.50
2018-01-21T03:34:47.867Z,2.50
2018-01-21T03:37:15.390Z,2.50
2018-01-21T03:39:42.903Z,2.50
2018-01-21T03:42:10.448Z,2.60
2018-01-21T03:44:37.959Z,2.60
2018-01-21T03:47:05.544Z,2.60
2018-01-21T03:49:33.159Z,2.70
2018-01-21T03:52:01.470Z,2.80
2018-01-21T03:54:28.989Z,2.80
2018-01-21T03:56:56.536Z,2.80
2018-01-21T03:59:24.057Z,2.80
2018-01-21T04:01:52.392Z,2.90
2018-01-21T04:04:19.948Z,2.90
2018-01-21T04:06:47.503Z,2.90
2018-01-21T04:09:15.782Z,2.80
2018-01-21T04:11:43.297Z,2.80
2018-01-21T04:14:10.851Z,2.80
2018-01-21T04:16:38.371Z,2.70
2018-01-21T04:19:05.914Z,2.70
2018-01-21T04:21:33.453Z,2.60
2018-01-21T04:24:01.768Z,2.60
2018-01-21T04:26:29.303Z,2.60
2018-01-21T04:28:57.087Z,2.60
2018-01-21T04:31:25.375Z,2.60
2018-01-21T04:33:53.726Z,2.60
2018-01-21T04:36:21.241Z,2.60
2018-01-21T04:38:49.564Z,2.60
2018-01-21T04:41:17.072Z,2.60
2018-01-21T04:43:44.628Z,2.70
2018-01-21T04:46:12.139Z,2.70
2018-01-21T04:48:39.657Z,2.70
2018-01-21T04:51:07.209Z,2.70
2018-01-21T04:53:34.721Z,2.70
2018-01-21T04:56:02.283Z,2.70
2018-01-21T04:58:29.796Z,2.70
2018-01-21T05:00:57.344Z,2.70
2018-01-21T05:03:24.857Z,2.70
2018-01-21T05:05:53.175Z,2.70
2018-01-21T05:08:20.678Z,2.70
2018-01-21T05:10:48.216Z,2.70
2018-01-21T05:13:15.727Z,2.70
2018-01-21T05:15:43.275Z,2.80
2018-01-21T05:18:10.793Z,2.70
2018-01-21T05:20:38.339Z,2.70
2018-01-21T05:23:05.854Z,2.70
2018-01-21T05:25:34.170Z,2.70
2018-01-21T05:28:01.679Z,2.70
2018-01-21T05:30:29.195Z,2.60
2018-01-21T05:32:56.743Z,2.60
2018-01-21T05:35:24.259Z,2.50
2018-01-21T05:37:51.846Z,2.40
2018-01-21T05:40:19.363Z,2.40
2018-01-21T05:42:47.687Z,2.30
2018-01-21T05:45:15.206Z,2.30
2018-01-21T05:47:42.760Z,2.30
2018-01-21T05:50:10.282Z,2.20
2018-01-21T05:52:38.590Z,2.10
2018-01-21T05:55:06.108Z,2.10
2018-01-21T05:57:33.651Z,2.10
2018-01-21T06:00:01.155Z,2.20
2018-01-21T06:02:28.704Z,2.20
2018-01-21T06:04:56.216Z,2.10
2018-01-21T06:07:24.495Z,2.10
2018-01-21T06:09:52.043Z,2.10
2018-01-21T06:12:19.551Z,2.10
2018-01-21T06:14:47.883Z,2.00
2018-01-21T06:17:15.400Z,2.00
2018-01-21T06:19:42.952Z,2.00
2018-01-21T06:22:10.479Z,1.90
2018-01-21T06:24:38.032Z,1.90
2018-01-21T06:27:06.319Z,1.90
2018-01-21T06:29:33.876Z,1.90
2018-01-21T06:32:01.387Z,1.80
2018-01-21T06:34:28.955Z,1.80
2018-01-21T06:36:56.465Z,1.80
2018-01-21T06:39:24.743Z,1.70
2018-01-21T06:41:52.303Z,1.70
2018-01-21T06:44:19.815Z,1.80
2018-01-21T06:46:47.375Z,1.80
2018-01-21T06:49:14.890Z,1.80
2018-01-21T06:51:42.437Z,1.90
2018-01-21T06:54:09.955Z,1.90
2018-01-21T06:56:37.507Z,1.90
2018-01-21T06:59:05.787Z,2.00
2018-01-21T07:01:34.123Z,2.00
2018-01-21T07:04:01.655Z,2.00
2018-01-21T07:06:29.936Z,2.10
2018-01-21T07:08:57.487Z,2.10
2018-01-21T07:11:25.006Z,2.10
2018-01-21T07:13:52.934Z,2.10
2018-01-21T07:16:20.455Z,2.10
2018-01-21T07:18:48.001Z,2.10
2018-01-21T07:21:15.534Z,2.10
2018-01-21T07:23:43.086Z,2.20
2018-01-21T07:26:10.613Z,2.10
2018-01-21T07:28:38.162Z,2.20
2018-01-21T07:31:05.668Z,2.20
2018-01-21T07:33:34.009Z,2.20
2018-01-21T07:36:01.539Z,2.20
2018-01-21T07:38:29.852Z,2.30
2018-01-21T07:40:57.356Z,2.20
2018-01-21T07:43:24.911Z,2.30
2018-01-21T07:45:52.423Z,2.30
2018-01-21T07:48:19.934Z,2.30
2018-01-21T07:50:47.484Z,2.30
2018-01-21T07:53:15.767Z,2.40
2018-01-21T07:55:44.185Z,2.40
2018-01-21T07:58:11.699Z,2.40
2018-01-21T08:00:39.252Z,2.50
2018-01-21T08:03:06.772Z,2.50
2018-01-21T08:05:35.274Z,2.50
2018-01-21T08:08:02.887Z,2.50
2018-01-21T08:10:30.455Z,2.50
2018-01-21T08:12:57.971Z,2.60
2018-01-21T08:15:25.493Z,2.60
2018-01-21T08:17:53.035Z,2.60
2018-01-21T08:20:21.479Z,2.60
2018-01-21T08:22:49.065Z,2.60
2018-01-21T08:25:16.645Z,2.70
2018-01-21T08:27:44.579Z,2.80
2018-01-21T08:30:12.113Z,2.90
2018-01-21T08:32:39.666Z,2.90
2018-01-21T08:35:12.964Z,3.00
2018-01-21T08:37:46.259Z,3.10
2018-01-21T08:40:19.420Z,3.00
2018-01-21T08:42:47.738Z,3.10
2018-01-21T08:45:15.251Z,3.00
2018-01-21T08:47:42.921Z,3.10
2018-01-21T08:50:10.438Z,3.10
2018-01-21T08:52:38.731Z,3.30
2018-01-21T08:55:07.044Z,3.40
2018-01-21T08:57:34.555Z,3.40
2018-01-21T09:00:02.110Z,3.50
2018-01-21T09:02:29.628Z,3.60
2018-01-21T09:04:57.207Z,3.60
2018-01-21T09:07:25.489Z,3.70
2018-01-21T09:09:53.821Z,3.70
2018-01-21T09:12:21.330Z,3.60
2018-01-21T09:14:48.835Z,3.60
2018-01-21T09:17:16.392Z,3.70
2018-01-21T09:19:44.666Z,3.80
2018-01-21T09:22:12.990Z,3.70
2018-01-21T09:24:40.503Z,3.60
2018-01-21T09:27:08.055Z,3.70
2018-01-21T09:29:35.579Z,3.70
2018-01-21T09:32:03.892Z,3.80
2018-01-21T09:34:31.399Z,3.80
2018-01-21T09:36:58.962Z,3.80
2018-01-21T09:39:26.479Z,3.90
2018-01-21T09:41:53.991Z,4.00
2018-01-21T09:44:21.535Z,4.10
2018-01-21T09:46:49.811Z,4.30
2018-01-21T09:49:17.361Z,4.20
2018-01-21T09:51:44.876Z,4.40
2018-01-21T09:54:12.419Z,4.50
2018-01-21T09:56:39.930Z,4.60
2018-01-21T09:59:07.484Z,4.70
2018-01-21T10:01:34.988Z,4.70
2018-01-21T10:04:02.539Z,4.70
2018-01-21T10:06:30.059Z,4.70
2018-01-21T10:08:57.604Z,4.80
2018-01-21T10:11:25.123Z,4.70
2018-01-21T10:13:52.682Z,4.70
2018-01-21T10:16:20.195Z,4.60
2018-01-21T10:18:48.468Z,4.50
2018-01-21T10:21:16.046Z,4.50
2018-01-21T10:23:44.332Z,4.40
2018-01-21T10:26:11.904Z,4.40
2018-01-21T10:28:39.411Z,4.60
2018-01-21T10:31:06.963Z,4.70
2018-01-21T10:33:34.499Z,4.90
2018-01-21T10:36:02.140Z,5.10
2018-01-21T10:38:29.659Z,5.00
2018-01-21T10:40:57.223Z,5.00
2018-01-21T10:43:24.769Z,4.90
2018-01-21T10:45:52.336Z,4.80
2018-01-21T10:48:19.876Z,4.80
2018-01-21T10:50:47.467Z,4.90
2018-01-21T10:53:15.117Z,4.90
2018-01-21T10:55:42.736Z,4.90
2018-01-21T10:58:10.671Z,5.00
2018-01-21T11:00:43.936Z,5.00
2018-01-21T11:03:11.584Z,5.10
2018-01-21T11:05:39.166Z,5.10
2018-01-21T11:08:06.742Z,5.10
2018-01-21T11:10:34.280Z,5.30
2018-01-21T11:13:01.885Z,5.30
2018-01-21T11:15:29.392Z,5.50
2018-01-21T11:17:57.675Z,5.50
2018-01-21T11:20:25.235Z,5.50
2018-01-21T11:22:52.749Z,5.30
2018-01-21T11:25:20.306Z,5.20
2018-01-21T11:27:47.943Z,5.10
2018-01-21T11:30:15.498Z,5.20
2018-01-21T11:32:43.027Z,5.30
2018-01-21T11:35:10.580Z,5.40
2018-01-21T11:37:38.148Z,5.50
2018-01-21T11:40:05.703Z,5.50
2018-01-21T11:42:33.218Z,5.80
2018-01-21T11:45:00.763Z,5.80
2018-01-21T11:47:28.295Z,5.80
2018-01-21T11:49:55.855Z,5.70
2018-01-21T11:52:23.367Z,5.60
2018-01-21T11:54:50.936Z,5.60
2018-01-21T11:57:18.444Z,5.60
2018-01-21T11:59:46.081Z,5.70
2018-01-21T12:02:13.658Z,5.60
2018-01-21T12:04:41.183Z,5.60
2018-01-21T12:07:09.505Z,5.60
2018-01-21T12:09:37.025Z,5.60
2018-01-21T12:12:04.575Z,5.70
2018-01-21T12:14:32.083Z,5.60
2018-01-21T12:16:59.643Z,5.70
2018-01-21T12:19:27.147Z,5.70
2018-01-21T12:21:54.691Z,5.90
2018-01-21T12:24:22.979Z,6.30
2018-01-21T12:26:50.534Z,6.30
2018-01-21T12:29:18.040Z,6.50
2018-01-21T12:31:45.591Z,6.50
2018-01-21T12:34:13.097Z,6.70
2018-01-21T12:36:40.616Z,6.70
2018-01-21T12:39:08.171Z,6.90
2018-01-21T12:41:35.691Z,6.90
2018-01-21T12:44:04.007Z,6.80
2018-01-21T12:46:31.532Z,6.80
2018-01-21T12:48:59.083Z,6.70
2018-01-21T12:51:26.607Z,6.50
2018-01-21T12:53:54.162Z,6.20
2018-01-21T12:56:22.455Z,5.80
2018-01-21T12:58:50.772Z,5.70
2018-01-21T13:01:18.316Z,5.70
2018-01-21T13:03:46.592Z,5.60
2018-01-21T13:06:14.156Z,5.60
2018-01-21T13:08:41.675Z,5.50
2018-01-21T13:11:09.227Z,5.60
2018-01-21T13:13:37.506Z,5.90
2018-01-21T13:16:05.835Z,6.00
2018-01-21T13:18:33.356Z,6.00
2018-01-21T13:21:00.912Z,6.10
2018-01-21T13:23:28.421Z,6.10
2018-01-21T13:25:55.995Z,6.20
2018-01-21T13:28:24.272Z,6.60
2018-01-21T13:30:51.775Z,6.60
2018-01-21T13:33:19.319Z,6.70
2018-01-21T13:35:46.864Z,6.80
2018-01-21T13:38:14.465Z,6.70
2018-01-21T13:40:42.736Z,6.50
2018-01-21T13:43:10.287Z,6.50
2018-01-21T13:45:37.805Z,6.30
2018-01-21T13:48:05.363Z,6.20
2018-01-21T13:50:33.713Z,6.10
2018-01-21T13:53:01.277Z,6.10
2018-01-21T13:55:28.787Z,6.10
2018-01-21T13:57:56.350Z,6.20
2018-01-21T14:00:23.859Z,6.40
2018-01-21T14:02:51.427Z,6.60
2018-01-21T14:05:18.943Z,6.70
2018-01-21T14:07:46.491Z,6.80
2018-01-21T14:10:14.169Z,6.80
2018-01-21T14:12:41.682Z,6.80
2018-01-21T14:15:09.242Z,6.90
2018-01-21T14:17:36.763Z,6.80
2018-01-21T14:20:04.333Z,6.80
2018-01-21T14:22:32.602Z,6.60
2018-01-21T14:25:00.159Z,6.50
2018-01-21T14:27:27.659Z,6.40
2018-01-21T14:29:55.215Z,6.20
2018-01-21T14:32:22.727Z,6.10
2018-01-21T14:34:50.294Z,5.90
2018-01-21T14:37:18.579Z,5.70
2018-01-21T14:39:46.155Z,5.60
2018-01-21T14:42:13.675Z,5.50
2018-01-21T14:44:41.231Z,5.40
2018-01-21T14:47:08.785Z,5.30
2018-01-21T14:49:36.312Z,5.20
2018-01-21T14:52:04.807Z,5.10
2018-01-21T14:54:33.115Z,5.00
2018-01-21T14:57:01.443Z,5.00
2018-01-21T14:59:28.986Z,5.00
2018-01-21T15:01:57.310Z,5.00
2018-01-21T15:04:24.854Z,5.00
2018-01-21T15:06:53.172Z,4.90
2018-01-21T15:09:20.692Z,4.90
2018-01-21T15:11:48.315Z,4.90
2018-01-21T15:14:15.827Z,4.80
2018-01-21T15:16:43.389Z,4.80
2018-01-21T15:19:11.658Z,4.80
2018-01-21T15:21:39.214Z,4.80
2018-01-21T15:24:06.726Z,4.80
2018-01-21T15:26:34.282Z,4.80
2018-01-21T15:29:01.851Z,4.80
2018-01-21T15:31:29.360Z,4.70
2018-01-21T15:33:56.907Z,4.70
2018-01-21T15:36:24.444Z,4.60
2018-01-21T15:38:51.996Z,4.50
2018-01-21T15:41:19.499Z,4.50
2018-01-21T15:43:47.043Z,4.40
2018-01-21T15:46:14.596Z,4.30
2018-01-21T15:48:42.184Z,4.20
2018-01-21T15:51:10.459Z,4.00
2018-01-21T15:53:38.771Z,3.90
2018-01-21T15:56:07.059Z,3.80
2018-01-21T15:58:34.639Z,3.80
2018-01-21T16:01:02.143Z,3.70
2018-01-21T16:03:29.650Z,3.70
2018-01-21T16:05:57.203Z,3.70
2018-01-21T16:08:24.702Z,3.60
2018-01-21T16:10:53.056Z,3.40
2018-01-21T16:13:20.571Z,3.40
2018-01-21T16:15:48.919Z,3.20
2018-01-21T16:18:16.431Z,3.20
2018-01-21T16:20:44.806Z,3.00
2018-01-21T16:23:12.318Z,3.00
2018-01-21T16:25:39.874Z,3.00
2018-01-21T16:28:08.186Z,2.80
2018-01-21T16:30:35.693Z,2.80
2018-01-21T16:33:03.246Z,2.80
2018-01-21T16:35:30.757Z,2.80
2018-01-21T16:38:10.148Z,2.90
2018-01-21T16:40:37.667Z,2.90
2018-01-21T16:43:05.224Z,3.00
2018-01-21T16:45:32.752Z,3.00
2018-01-21T16:48:00.339Z,3.00
2018-01-21T16:50:27.891Z,3.00
2018-01-21T16:52:56.216Z,3.00
2018-01-21T16:55:23.728Z,3.00
2018-01-21T16:57:51.234Z,2.90
2018-01-21T17:00:18.781Z,2.90
2018-01-21T17:02:46.295Z,2.90
2018-01-21T17:05:13.875Z,2.90
2018-01-21T17:07:41.408Z,2.80
2018-01-21T17:10:09.731Z,2.70
2018-01-21T17:12:37.239Z,2.60
2018-01-21T17:15:04.804Z,2.60
2018-01-21T17:17:32.311Z,2.60
2018-01-21T17:20:00.626Z,2.50
2018-01-21T17:22:28.134Z,2.50
2018-01-21T17:24:55.687Z,2.40
2018-01-21T17:27:23.199Z,2.40
2018-01-21T17:29:50.755Z,2.40
2018-01-21T17:32:18.281Z,2.40
2018-01-21T17:34:45.856Z,2.40
2018-01-21T17:37:13.400Z,2.40
2018-01-21T17:39:41.739Z,2.40
2018-01-21T17:42:09.288Z,2.30
2018-01-21T17:44:36.861Z,2.40
2018-01-21T17:47:04.416Z,2.40
2018-01-21T17:49:32.696Z,2.40
2018-01-21T17:52:01.016Z,2.50
2018-01-21T17:54:28.531Z,2.40
2018-01-21T17:56:56.084Z,2.50
2018-01-21T17:59:23.591Z,2.50
2018-01-21T18:01:51.155Z,2.40
2018-01-21T18:04:18.667Z,2.40
2018-01-21T18:06:46.231Z,2.40
2018-01-21T18:09:13.753Z,2.40
2018-01-21T18:11:41.315Z,2.70
2018-01-21T18:14:08.898Z,2.70
2018-01-21T18:16:36.454Z,2.60
2018-01-21T18:19:04.004Z,2.60
2018-01-21T18:21:31.520Z,2.50
2018-01-21T18:23:59.115Z,2.40
2018-01-21T18:26:26.630Z,2.40
2018-01-21T18:28:54.202Z,2.40
2018-01-21T18:31:21.711Z,2.40
2018-01-21T18:33:49.259Z,2.40
2018-01-21T18:36:16.823Z,2.50
2018-01-21T18:38:44.394Z,2.60
2018-01-21T18:41:11.899Z,2.60
2018-01-21T18:43:39.464Z,2.60
2018-01-21T18:46:06.977Z,2.60
2018-01-21T18:48:35.363Z,2.50
2018-01-21T18:51:03.684Z,2.50
2018-01-21T18:53:31.231Z,2.60
2018-01-21T18:55:59.617Z,2.60
2018-01-21T18:58:27.936Z,2.70
2018-01-21T19:00:55.495Z,2.70
2018-01-21T19:03:23.763Z,2.60
2018-01-21T19:05:51.319Z,2.60
2018-01-21T19:08:18.818Z,2.70
2018-01-21T19:10:46.368Z,2.60
2018-01-21T19:13:13.867Z,2.70
2018-01-21T19:15:42.208Z,2.70
2018-01-21T19:18:09.723Z,2.70
2018-01-21T19:20:37.295Z,2.60
2018-01-21T19:23:04.802Z,2.60
2018-01-21T19:25:32.363Z,2.60
2018-01-21T19:27:59.951Z,2.70
2018-01-21T19:30:27.476Z,2.70
2018-01-21T19:32:55.047Z,2.70
2018-01-21T19:35:22.547Z,2.70
2018-01-21T19:37:50.885Z,2.80
2018-01-21T19:40:34.240Z,2.80
2018-01-21T19:43:02.386Z,2.80
2018-01-21T19:45:29.903Z,2.80
2018-01-21T19:47:57.451Z,2.90
2018-01-21T19:50:24.988Z,2.90
2018-01-21T19:52:52.527Z,2.90
2018-01-21T19:55:20.032Z,3.00
2018-01-21T19:57:47.579Z,2.90
2018-01-21T20:00:15.108Z,3.00
2018-01-21T20:02:43.639Z,2.90
2018-01-21T20:05:11.178Z,2.90
2018-01-21T20:07:38.790Z,2.90
2018-01-21T20:10:06.289Z,3.00
2018-01-21T20:12:33.912Z,3.00
2018-01-21T20:15:01.424Z,3.00
2018-01-21T20:17:29.746Z,3.00
2018-01-21T20:19:57.261Z,3.00
2018-01-21T20:22:24.784Z,2.90
2018-01-21T20:24:52.364Z,3.00
2018-01-21T20:27:19.905Z,3.10
2018-01-21T20:29:47.485Z,3.00
2018-01-21T20:32:15.028Z,3.00
2018-01-21T20:34:42.617Z,3.10
2018-01-21T20:37:10.182Z,3.00
2018-01-21T20:39:37.730Z,3.00
2018-01-21T20:42:05.356Z,3.00
2018-01-21T20:44:32.938Z,3.00
2018-01-21T20:47:00.532Z,3.10
2018-01-21T20:49:28.408Z,3.10
2018-01-21T20:52:01.631Z,3.20
2018-01-21T20:54:34.760Z,3.20
2018-01-21T20:57:02.319Z,3.20
2018-01-21T20:59:29.825Z,3.20
2018-01-21T21:01:57.376Z,3.20
2018-01-21T21:04:24.886Z,3.20
2018-01-21T21:06:53.203Z,3.20
2018-01-21T21:09:20.723Z,3.20
2018-01-21T21:11:48.307Z,3.20
2018-01-21T21:14:16.579Z,3.30
2018-01-21T21:16:44.136Z,3.30
2018-01-21T21:19:11.646Z,3.30
2018-01-21T21:21:39.972Z,3.40
2018-01-21T21:24:07.507Z,3.30
2018-01-21T21:26:36.006Z,3.30
2018-01-21T21:29:04.294Z,3.30
2018-01-21T21:31:32.577Z,3.30
2018-01-21T21:34:00.903Z,3.40
2018-01-21T21:36:28.417Z,3.30
2018-01-21T21:38:55.964Z,3.40
2018-01-21T21:41:23.480Z,3.40
2018-01-21T21:43:51.038Z,3.40
2018-01-21T21:46:18.555Z,3.50
2018-01-21T21:48:46.113Z,3.40
2018-01-21T21:51:14.391Z,3.30
2018-01-21T21:53:42.707Z,3.30
2018-01-21T21:56:10.226Z,3.30
2018-01-21T21:58:37.803Z,3.30
2018-01-21T22:01:05.312Z,3.20
2018-01-21T22:03:33.655Z,3.30
2018-01-21T22:06:01.229Z,3.20
2018-01-21T22:08:28.735Z,3.20
2018-01-21T22:10:56.283Z,3.20
2018-01-21T22:13:23.796Z,3.10
2018-01-21T22:15:51.360Z,3.00
2018-01-21T22:18:18.862Z,3.00
2018-01-21T22:20:46.451Z,3.00
2018-01-21T22:23:14.738Z,2.90
2018-01-21T22:25:42.949Z,2.90
2018-01-21T22:28:10.463Z,2.80
2018-01-21T22:30:38.011Z,2.80
2018-01-21T22:33:06.698Z,2.60
2018-01-21T22:35:34.290Z,2.60
2018-01-21T22:38:01.832Z,2.70
2018-01-21T22:40:29.389Z,2.80
2018-01-21T22:42:56.959Z,2.70
2018-01-21T22:45:24.487Z,2.70
2018-01-21T22:47:52.062Z,2.70
2018-01-21T22:50:19.572Z,2.60
2018-01-21T22:52:47.117Z,2.60
2018-01-21T22:55:14.649Z,2.50
2018-01-21T22:57:42.205Z,2.50
2018-01-21T23:00:09.723Z,2.50
2018-01-21T23:02:38.052Z,2.50
2018-01-21T23:05:05.806Z,2.50
2018-01-21T23:07:33.322Z,2.60
2018-01-21T23:10:00.870Z,2.60
2018-01-21T23:12:28.391Z,2.50
2018-01-21T23:14:56.705Z,2.50
2018-01-21T23:17:24.227Z,2.50
2018-01-21T23:19:51.771Z,2.50
2018-01-21T23:22:19.282Z,2.40
2018-01-21T23:24:46.831Z,2.40
2018-01-21T23:27:14.382Z,2.40
2018-01-21T23:29:41.940Z,2.40
2018-01-21T23:32:09.458Z,2.50
2018-01-21T23:34:37.023Z,2.50
2018-01-21T23:37:04.555Z,2.50
2018-01-21T23:39:32.099Z,2.50
2018-01-21T23:42:00.375Z,2.40
2018-01-21T23:44:27.943Z,2.40
2018-01-21T23:46:55.464Z,2.40
2018-01-21T23:49:22.978Z,2.30
2018-01-21T23:51:50.520Z,2.30
2018-01-21T23:54:18.067Z,2.40
2018-01-21T23:56:45.614Z,2.40
2018-01-21T23:59:13.127Z,2.50
